Tanner Field, CO

12:55 PM MDT die 26o March, anno 2017 (GMT -0600)
East Lewis | | Change Station

Elev 6909 ft 37.52 °N, 108.63 °W | Updated 8 minutes ago

Plerumque Nubila
Plerumque Nubila
66.6 °F
Feels Like 66.6 °F
N
0.0
Ventus Variabilis Ventus from Magis Eurus quam Auster
Gusts 0.0 mph

Hodie
High -- | Low -- °F
--% Chance of Precip.
Yesterday
High -- | Low -- °F
Precip. -- in
Pressio 29.94 in
Visibilitas 10.0 milia passuum
Clouds Few 2500 ft
Aequaliter Nubila 4200 ft
Frigus in quo Ros apparet 43 °F
Umor 42%
Rainfall 0.00 in
Snow Depth Not available.
7:08 AM 7:32 PM
Waning Crescent, 2% visible
METAR KCEZ 261753Z AUTO VRB05KT 10SM FEW025 OVC042 09/04 A3001 RMK AO2 SLP137 T00890039 10089 20033 53013
Pressio 29.94 in
Visibilitas 10.0 milia passuum
Clouds Few 2500 ft
Aequaliter Nubila 4200 ft
Frigus in quo Ros apparet 43 °F
Umor 42%
Rainfall 0.00 in
Snow Depth Not available.
7:08 AM 7:32 PM
Waning Crescent, 2% visible
METAR KCEZ 261753Z AUTO VRB05KT 10SM FEW025 OVC042 09/04 A3001 RMK AO2 SLP137 T00890039 10089 20033 53013

Get Severe Weather Alerts

Thanks for signing up!

Be on the lookout for a verification email in your inbox.

You'll start receiving the daily forecast at 8 AM.

×

10-Day Weather Forecast

Almanac

Astronomy

Mar. 26, 2017 Rise Set
Actual Time
Civil Twilight
Nautical Twilight
Astronomical Twilight
Moon
Length Of Visible Light
Length of Day
Tomorrow will be .
, % of the Moon is Illuminated

Today's Extremes

State Highs State Lows

Community

WunderPhotos

Upload Photos

1,962,540 photos uploaded!

WunderBlog® & News

Nearby

Air Quality

  Air Quality AQ Index Pollutant
Not available.

Snow Depth

Station Depth Elevation

Earthquake Activity

City Distance Mag. Time & Date
Minimum magnitude displayed is 2.5.

Earthquake Activity

City Distance Mag. Time & Date
Minimum magnitude displayed is 2.5.

Coastal Water Temperatures

Locus Calor

Stations

Nearby Weather Stations

Station Location Temp Frigus Venti Frigus in quo Ros apparet Umor Ventus Precip. Elev Renovata Type
                   

Watches & Warnings

There are currently no watches in effect.